Avon, CO

6:39 PM MDT on October 22, 2014 (GMT -0600)
Whiskey Hill, EagleVail | Change Station
CLOSE
Current Station
Personal Weather Station
Location: Avon, CO
Elevation: 7959 ft
Nearby Weather Stations

Elev 7959 ft 39.61 °N, 106.48 °W | Updated 9 minutes ago

Overcast
Overcast
47.7 °F
Feels Like 48 °F
N
0.0
Wind Variable Wind from North
Gusts 0.0 mph

Today
High -- | Low -- °F
--% Chance of Precip.
Yesterday
High -- | Low -- °F
Precip. -- in
7:23 AM 6:16 PM
Waning Crescent, 1% visible
Pressure 30.23 in
Visibility 10.0 miles
Clouds Scattered Clouds 6000 ft
Mostly Cloudy 9000 ft
Windchill 48 °F
Dew Point 24 °F
Humidity 39%
Rainfall 0.20 in
Snow Depth 12 in , 0 in , 0 in
UV 0 out of 12
Pollen 2.40 out of 12
Air Quality Not available.
Flu Activity Sporadic
METAR KEGE 222350Z VRB06KT 10SM VCSH SCT060 BKN090 11/07 A3023

More Conditions Fewer Conditions

Pressure 30.23 in
Visibility 10.0 miles
Clouds Scattered Clouds 6000 ft
Mostly Cloudy 9000 ft
Windchill 48 °F
Dew Point 24 °F
Humidity 39%
Rainfall 0.20 in
Snow Depth 12 in , 0 in , 0 in
UV 0 out of 12
Pollen 2.40 out of 12
Air Quality Not available.
Flu Activity Sporadic
METAR KEGE 222350Z VRB06KT 10SM VCSH SCT060 BKN090 11/07 A3023

More Conditions Fewer Conditions

10-Day Weather Forecast

Almanac

Astronomy

Oct. 22, 2014 Rise Set
Actual Time 7:23 AM MDT 6:16 PM MDT
Civil Twilight 6:56 AM MDT 6:44 PM MDT
Nautical Twilight 6:24 AM MDT 7:15 PM MDT
Astronomical Twilight 5:53 AM MDT 7:46 PM MDT
Moon 6:07 AM MDT (10/22) 5:44 PM MDT (10/22)
Length of Visible Light 11h 48m
Length of Day
10h 53m
Tomorrow will be 2m 26s shorter.
Waning Crescent, 1% of the Moon is Illuminated
Today
Waning Crescent
Oct 23
New
Oct 30
First Quarter
Nov 6
Full
Nov 14
Last Quarter

Today's Extremes

State Highs State Lows

Community

WunderPhotos

Upload Photos

1,764,095 photos uploaded!

WunderBlogs® & News

Nearby

Snow Depth

Station Depth Elevation
Mccoy Park 12 in 9480 ft
Beaver Creek Village 0 in 8500 ft
Vail Mountain 0 in 10300 ft
Kiln 0 in 9600 ft
Nast Lake 0 in 8700 ft

Earthquake Activity

City Distance Mag. Time & Date
No recent earthquake activity has been reported nearby.
Minimum magnitude displayed is 2.5.

Coastal Water Temperatures

Place Temperature
No Stations Reporting

Nearby Weather Stations